sensor_id;sensor_type;location;lat;lon;timestamp;temperature;humidity
8945;DHT22;4507;40.232;29.132;2023-04-25T00:01:48;11.60;83.90
8945;DHT22;4507;40.232;29.132;2023-04-25T00:04:18;11.60;83.70
8945;DHT22;4507;40.232;29.132;2023-04-25T00:06:49;11.60;83.70
8945;DHT22;4507;40.232;29.132;2023-04-25T00:09:19;11.60;83.80
8945;DHT22;4507;40.232;29.132;2023-04-25T00:11:48;11.50;83.80
8945;DHT22;4507;40.232;29.132;2023-04-25T00:14:18;11.50;84.00
8945;DHT22;4507;40.232;29.132;2023-04-25T00:16:48;11.50;84.00
8945;DHT22;4507;40.232;29.132;2023-04-25T00:19:19;11.50;83.70
8945;DHT22;4507;40.232;29.132;2023-04-25T00:21:48;11.40;83.30
8945;DHT22;4507;40.232;29.132;2023-04-25T00:24:17;11.30;83.00
8945;DHT22;4507;40.232;29.132;2023-04-25T00:26:46;11.20;83.00
8945;DHT22;4507;40.232;29.132;2023-04-25T00:29:15;11.20;83.50
8945;DHT22;4507;40.232;29.132;2023-04-25T00:31:44;11.10;84.00
8945;DHT22;4507;40.232;29.132;2023-04-25T00:34:15;11.00;84.20
8945;DHT22;4507;40.232;29.132;2023-04-25T00:36:44;11.00;84.50
8945;DHT22;4507;40.232;29.132;2023-04-25T00:39:13;11.00;85.00
8945;DHT22;4507;40.232;29.132;2023-04-25T00:41:43;11.00;85.30
8945;DHT22;4507;40.232;29.132;2023-04-25T00:44:13;11.00;85.60
8945;DHT22;4507;40.232;29.132;2023-04-25T00:46:45;11.00;85.80
8945;DHT22;4507;40.232;29.132;2023-04-25T00:49:16;11.00;85.70
8945;DHT22;4507;40.232;29.132;2023-04-25T00:51:46;10.90;85.90
8945;DHT22;4507;40.232;29.132;2023-04-25T00:54:15;10.90;86.10
8945;DHT22;4507;40.232;29.132;2023-04-25T00:56:45;10.90;86.30
8945;DHT22;4507;40.232;29.132;2023-04-25T00:59:15;10.90;86.30
8945;DHT22;4507;40.232;29.132;2023-04-25T01:01:45;10.90;86.30
8945;DHT22;4507;40.232;29.132;2023-04-25T01:04:16;10.90;86.10
8945;DHT22;4507;40.232;29.132;2023-04-25T01:06:45;10.90;86.10
8945;DHT22;4507;40.232;29.132;2023-04-25T01:09:15;10.90;86.30
8945;DHT22;4507;40.232;29.132;2023-04-25T01:11:44;10.80;86.40
8945;DHT22;4507;40.232;29.132;2023-04-25T01:14:13;10.90;86.60
8945;DHT22;4507;40.232;29.132;2023-04-25T01:16:42;10.90;86.70
8945;DHT22;4507;40.232;29.132;2023-04-25T01:19:18;10.90;86.60
8945;DHT22;4507;40.232;29.132;2023-04-25T01:21:48;10.90;86.30
8945;DHT22;4507;40.232;29.132;2023-04-25T01:24:18;10.80;86.00
8945;DHT22;4507;40.232;29.132;2023-04-25T01:26:49;10.80;85.80
8945;DHT22;4507;40.232;29.132;2023-04-25T01:29:23;10.70;85.60
8945;DHT22;4507;40.232;29.132;2023-04-25T01:31:53;10.70;85.50
8945;DHT22;4507;40.232;29.132;2023-04-25T01:34:22;10.70;85.70
8945;DHT22;4507;40.232;29.132;2023-04-25T01:36:53;10.70;85.90
8945;DHT22;4507;40.232;29.132;2023-04-25T01:39:22;10.60;86.20
8945;DHT22;4507;40.232;29.132;2023-04-25T01:41:52;10.70;86.50
8945;DHT22;4507;40.232;29.132;2023-04-25T01:44:24;10.70;86.60
8945;DHT22;4507;40.232;29.132;2023-04-25T01:46:53;10.60;86.20
8945;DHT22;4507;40.232;29.132;2023-04-25T01:49:22;10.60;86.00
8945;DHT22;4507;40.232;29.132;2023-04-25T01:51:53;10.50;85.90
8945;DHT22;4507;40.232;29.132;2023-04-25T01:54:22;10.50;86.30
8945;DHT22;4507;40.232;29.132;2023-04-25T01:56:51;10.50;86.50
8945;DHT22;4507;40.232;29.132;2023-04-25T01:59:21;10.50;86.60
8945;DHT22;4507;40.232;29.132;2023-04-25T02:02:06;10.50;86.70
8945;DHT22;4507;40.232;29.132;2023-04-25T02:04:36;10.50;86.80
8945;DHT22;4507;40.232;29.132;2023-04-25T02:07:07;10.50;86.70
8945;DHT22;4507;40.232;29.132;2023-04-25T02:09:48;10.50;86.70
8945;DHT22;4507;40.232;29.132;2023-04-25T02:12:18;10.50;86.70
8945;DHT22;4507;40.232;29.132;2023-04-25T02:15:11;10.50;86.70
8945;DHT22;4507;40.232;29.132;2023-04-25T02:18:00;10.50;86.80
8945;DHT22;4507;40.232;29.132;2023-04-25T02:20:37;10.50;86.80
8945;DHT22;4507;40.232;29.132;2023-04-25T02:23:07;10.60;87.00
8945;DHT22;4507;40.232;29.132;2023-04-25T02:25:37;10.60;87.10
8945;DHT22;4507;40.232;29.132;2023-04-25T02:28:07;10.60;87.20
8945;DHT22;4507;40.232;29.132;2023-04-25T02:30:36;10.60;87.30
8945;DHT22;4507;40.232;29.132;2023-04-25T02:33:05;10.70;87.40
8945;DHT22;4507;40.232;29.132;2023-04-25T02:35:35;10.70;87.40
8945;DHT22;4507;40.232;29.132;2023-04-25T02:38:04;10.70;87.40
8945;DHT22;4507;40.232;29.132;2023-04-25T02:40:35;10.70;87.40
8945;DHT22;4507;40.232;29.132;2023-04-25T02:43:04;10.70;87.90
8945;DHT22;4507;40.232;29.132;2023-04-25T02:45:33;10.70;87.40
8945;DHT22;4507;40.232;29.132;2023-04-25T02:48:02;10.70;87.50
8945;DHT22;4507;40.232;29.132;2023-04-25T02:50:32;10.70;87.60
8945;DHT22;4507;40.232;29.132;2023-04-25T02:53:01;10.70;87.60
8945;DHT22;4507;40.232;29.132;2023-04-25T02:55:38;10.70;87.70
8945;DHT22;4507;40.232;29.132;2023-04-25T02:58:07;10.70;87.80
8945;DHT22;4507;40.232;29.132;2023-04-25T03:00:43;10.70;87.80
8945;DHT22;4507;40.232;29.132;2023-04-25T03:03:13;10.70;87.90
8945;DHT22;4507;40.232;29.132;2023-04-25T03:05:45;10.70;87.90
8945;DHT22;4507;40.232;29.132;2023-04-25T03:08:17;10.70;88.00
8945;DHT22;4507;40.232;29.132;2023-04-25T03:10:48;10.70;88.50
8945;DHT22;4507;40.232;29.132;2023-04-25T03:13:19;10.70;88.40
8945;DHT22;4507;40.232;29.132;2023-04-25T03:15:48;10.70;88.60
8945;DHT22;4507;40.232;29.132;2023-04-25T03:18:20;10.70;88.80
8945;DHT22;4507;40.232;29.132;2023-04-25T03:20:55;10.70;89.00
8945;DHT22;4507;40.232;29.132;2023-04-25T03:23:24;10.70;89.00
8945;DHT22;4507;40.232;29.132;2023-04-25T03:25:56;10.70;88.90
8945;DHT22;4507;40.232;29.132;2023-04-25T03:28:25;10.70;89.20
8945;DHT22;4507;40.232;29.132;2023-04-25T03:30:56;10.70;89.50
8945;DHT22;4507;40.232;29.132;2023-04-25T03:33:26;10.70;89.60
8945;DHT22;4507;40.232;29.132;2023-04-25T03:35:58;10.80;89.80
8945;DHT22;4507;40.232;29.132;2023-04-25T03:38:29;10.80;89.90
8945;DHT22;4507;40.232;29.132;2023-04-25T03:41:19;10.80;90.00
8945;DHT22;4507;40.232;29.132;2023-04-25T03:43:53;10.80;90.00
8945;DHT22;4507;40.232;29.132;2023-04-25T03:46:22;10.90;90.10
8945;DHT22;4507;40.232;29.132;2023-04-25T03:48:52;11.00;90.20
8945;DHT22;4507;40.232;29.132;2023-04-25T03:51:28;11.00;90.20
8945;DHT22;4507;40.232;29.132;2023-04-25T03:54:16;11.10;90.20
8945;DHT22;4507;40.232;29.132;2023-04-25T03:57:00;11.10;90.10
8945;DHT22;4507;40.232;29.132;2023-04-25T03:59:34;11.20;90.00
8945;DHT22;4507;40.232;29.132;2023-04-25T04:02:10;11.30;89.70
8945;DHT22;4507;40.232;29.132;2023-04-25T04:04:40;11.40;89.30
8945;DHT22;4507;40.232;29.132;2023-04-25T04:07:12;11.50;89.40
8945;DHT22;4507;40.232;29.132;2023-04-25T04:09:45;11.50;89.00
8945;DHT22;4507;40.232;29.132;2023-04-25T04:12:23;11.60;88.80
8945;DHT22;4507;40.232;29.132;2023-04-25T04:14:52;11.70;89.10
8945;DHT22;4507;40.232;29.132;2023-04-25T04:17:21;11.80;89.30
8945;DHT22;4507;40.232;29.132;2023-04-25T04:19:51;11.90;89.20
8945;DHT22;4507;40.232;29.132;2023-04-25T04:22:24;12.00;89.10
8945;DHT22;4507;40.232;29.132;2023-04-25T04:24:57;12.10;88.50
8945;DHT22;4507;40.232;29.132;2023-04-25T04:27:56;12.20;88.00
8945;DHT22;4507;40.232;29.132;2023-04-25T04:30:44;12.40;87.80
8945;DHT22;4507;40.232;29.132;2023-04-25T04:33:13;12.50;87.70
8945;DHT22;4507;40.232;29.132;2023-04-25T04:35:46;12.60;87.50
8945;DHT22;4507;40.232;29.132;2023-04-25T04:38:18;12.60;87.60
8945;DHT22;4507;40.232;29.132;2023-04-25T04:41:06;12.80;87.30
8945;DHT22;4507;40.232;29.132;2023-04-25T04:43:49;12.90;86.70
8945;DHT22;4507;40.232;29.132;2023-04-25T04:46:44;12.90;86.00
8945;DHT22;4507;40.232;29.132;2023-04-25T04:49:32;13.00;85.20
8945;DHT22;4507;40.232;29.132;2023-04-25T04:52:19;13.10;84.50
8945;DHT22;4507;40.232;29.132;2023-04-25T04:55:02;13.20;84.60
8945;DHT22;4507;40.232;29.132;2023-04-25T04:57:44;13.20;84.50
8945;DHT22;4507;40.232;29.132;2023-04-25T05:00:41;13.30;84.50
8945;DHT22;4507;40.232;29.132;2023-04-25T05:03:24;13.50;84.60
8945;DHT22;4507;40.232;29.132;2023-04-25T05:06:15;13.60;84.10
8945;DHT22;4507;40.232;29.132;2023-04-25T05:09:07;13.70;83.20
8945;DHT22;4507;40.232;29.132;2023-04-25T05:11:55;13.90;82.90
8945;DHT22;4507;40.232;29.132;2023-04-25T05:14:38;14.00;83.10
8945;DHT22;4507;40.232;29.132;2023-04-25T05:17:44;14.20;82.30
8945;DHT22;4507;40.232;29.132;2023-04-25T05:20:32;14.40;81.40
8945;DHT22;4507;40.232;29.132;2023-04-25T05:23:33;14.60;79.90
8945;DHT22;4507;40.232;29.132;2023-04-25T05:26:16;14.80;77.60
8945;DHT22;4507;40.232;29.132;2023-04-25T05:29:05;14.90;77.00
8945;DHT22;4507;40.232;29.132;2023-04-25T05:31:53;15.00;76.60
8945;DHT22;4507;40.232;29.132;2023-04-25T05:34:25;15.30;76.80
8945;DHT22;4507;40.232;29.132;2023-04-25T05:37:01;15.10;76.40
8945;DHT22;4507;40.232;29.132;2023-04-25T05:39:31;15.20;76.30
8945;DHT22;4507;40.232;29.132;2023-04-25T05:42:08;15.30;75.70
8945;DHT22;4507;40.232;29.132;2023-04-25T05:44:50;15.30;75.20
8945;DHT22;4507;40.232;29.132;2023-04-25T05:47:37;15.40;74.40
8945;DHT22;4507;40.232;29.132;2023-04-25T05:50:13;15.40;73.50
8945;DHT22;4507;40.232;29.132;2023-04-25T05:52:49;15.40;72.30
8945;DHT22;4507;40.232;29.132;2023-04-25T05:55:44;15.40;71.70
8945;DHT22;4507;40.232;29.132;2023-04-25T05:58:22;15.50;71.50
8945;DHT22;4507;40.232;29.132;2023-04-25T06:00:51;15.50;71.20
8945;DHT22;4507;40.232;29.132;2023-04-25T06:03:21;15.60;71.20
8945;DHT22;4507;40.232;29.132;2023-04-25T06:05:52;15.60;70.80
8945;DHT22;4507;40.232;29.132;2023-04-25T06:08:22;15.70;71.10
8945;DHT22;4507;40.232;29.132;2023-04-25T06:10:51;15.80;71.20
8945;DHT22;4507;40.232;29.132;2023-04-25T06:13:20;15.90;71.60
8945;DHT22;4507;40.232;29.132;2023-04-25T06:15:49;16.00;71.70
8945;DHT22;4507;40.232;29.132;2023-04-25T06:18:18;16.20;71.10
8945;DHT22;4507;40.232;29.132;2023-04-25T06:20:47;16.40;70.60
8945;DHT22;4507;40.232;29.132;2023-04-25T06:23:23;16.50;69.00
8945;DHT22;4507;40.232;29.132;2023-04-25T06:26:07;16.70;68.70
8945;DHT22;4507;40.232;29.132;2023-04-25T06:28:39;16.80;67.40
8945;DHT22;4507;40.232;29.132;2023-04-25T06:31:12;16.80;66.20
8945;DHT22;4507;40.232;29.132;2023-04-25T06:33:44;16.90;65.60
8945;DHT22;4507;40.232;29.132;2023-04-25T06:36:13;16.90;64.80
8945;DHT22;4507;40.232;29.132;2023-04-25T06:38:46;16.90;63.90
8945;DHT22;4507;40.232;29.132;2023-04-25T06:41:15;16.80;64.00
8945;DHT22;4507;40.232;29.132;2023-04-25T06:43:44;16.80;63.90
8945;DHT22;4507;40.232;29.132;2023-04-25T06:46:37;16.80;64.40
8945;DHT22;4507;40.232;29.132;2023-04-25T06:49:06;16.90;65.10
8945;DHT22;4507;40.232;29.132;2023-04-25T06:51:36;17.00;64.80
8945;DHT22;4507;40.232;29.132;2023-04-25T06:54:06;17.20;63.80
8945;DHT22;4507;40.232;29.132;2023-04-25T06:56:44;17.40;63.90
8945;DHT22;4507;40.232;29.132;2023-04-25T06:59:31;17.60;62.70
8945;DHT22;4507;40.232;29.132;2023-04-25T07:02:02;17.80;62.20
8945;DHT22;4507;40.232;29.132;2023-04-25T07:04:31;17.90;60.70
8945;DHT22;4507;40.232;29.132;2023-04-25T07:07:02;18.00;59.60
8945;DHT22;4507;40.232;29.132;2023-04-25T07:09:43;18.10;59.80
8945;DHT22;4507;40.232;29.132;2023-04-25T07:12:12;18.10;59.80
8945;DHT22;4507;40.232;29.132;2023-04-25T07:14:41;18.20;60.00
8945;DHT22;4507;40.232;29.132;2023-04-25T07:17:10;18.30;59.40
8945;DHT22;4507;40.232;29.132;2023-04-25T07:19:40;18.50;59.20
8945;DHT22;4507;40.232;29.132;2023-04-25T07:22:09;18.60;57.90
8945;DHT22;4507;40.232;29.132;2023-04-25T07:24:42;18.70;57.10
8945;DHT22;4507;40.232;29.132;2023-04-25T07:27:16;18.70;57.30
8945;DHT22;4507;40.232;29.132;2023-04-25T07:30:11;18.80;56.80
8945;DHT22;4507;40.232;29.132;2023-04-25T07:32:41;19.00;56.80
8945;DHT22;4507;40.232;29.132;2023-04-25T07:35:10;19.10;57.10
8945;DHT22;4507;40.232;29.132;2023-04-25T07:37:40;19.20;56.10
8945;DHT22;4507;40.232;29.132;2023-04-25T07:40:17;19.30;57.00
8945;DHT22;4507;40.232;29.132;2023-04-25T07:42:54;19.50;56.70
8945;DHT22;4507;40.232;29.132;2023-04-25T07:45:39;19.60;56.40
8945;DHT22;4507;40.232;29.132;2023-04-25T07:48:26;19.70;56.40
8945;DHT22;4507;40.232;29.132;2023-04-25T07:50:56;19.90;56.70
8945;DHT22;4507;40.232;29.132;2023-04-25T07:53:26;20.00;55.10
8945;DHT22;4507;40.232;29.132;2023-04-25T07:56:02;20.10;54.30
8945;DHT22;4507;40.232;29.132;2023-04-25T07:58:34;20.20;54.00
8945;DHT22;4507;40.232;29.132;2023-04-25T08:01:06;20.30;53.10
8945;DHT22;4507;40.232;29.132;2023-04-25T08:03:46;20.40;53.40
8945;DHT22;4507;40.232;29.132;2023-04-25T08:06:23;20.50;53.40
8945;DHT22;4507;40.232;29.132;2023-04-25T08:09:02;20.60;52.70
8945;DHT22;4507;40.232;29.132;2023-04-25T08:11:38;20.80;53.10
8945;DHT22;4507;40.232;29.132;2023-04-25T08:14:12;20.90;52.10
8945;DHT22;4507;40.232;29.132;2023-04-25T08:16:43;21.00;51.80
8945;DHT22;4507;40.232;29.132;2023-04-25T08:19:13;21.10;52.00
8945;DHT22;4507;40.232;29.132;2023-04-25T08:21:44;21.20;51.60
8945;DHT22;4507;40.232;29.132;2023-04-25T08:24:18;21.30;51.90
8945;DHT22;4507;40.232;29.132;2023-04-25T08:26:49;21.40;51.10
8945;DHT22;4507;40.232;29.132;2023-04-25T08:29:20;21.50;50.80
8945;DHT22;4507;40.232;29.132;2023-04-25T08:31:52;21.60;50.70
8945;DHT22;4507;40.232;29.132;2023-04-25T08:34:40;21.80;50.20
8945;DHT22;4507;40.232;29.132;2023-04-25T08:37:10;21.90;49.60
8945;DHT22;4507;40.232;29.132;2023-04-25T08:39:47;22.00;48.30
8945;DHT22;4507;40.232;29.132;2023-04-25T08:42:38;22.10;48.20
8945;DHT22;4507;40.232;29.132;2023-04-25T08:45:10;22.30;47.30
8945;DHT22;4507;40.232;29.132;2023-04-25T08:47:43;22.40;47.00
8945;DHT22;4507;40.232;29.132;2023-04-25T08:50:17;22.50;47.40
8945;DHT22;4507;40.232;29.132;2023-04-25T08:52:47;22.60;47.10
8945;DHT22;4507;40.232;29.132;2023-04-25T08:55:21;22.70;46.40
8945;DHT22;4507;40.232;29.132;2023-04-25T08:58:10;22.80;46.00
8945;DHT22;4507;40.232;29.132;2023-04-25T09:00:40;22.90;45.30
8945;DHT22;4507;40.232;29.132;2023-04-25T09:03:10;23.00;45.50
8945;DHT22;4507;40.232;29.132;2023-04-25T09:05:41;23.10;45.00
8945;DHT22;4507;40.232;29.132;2023-04-25T09:08:15;23.20;44.60
8945;DHT22;4507;40.232;29.132;2023-04-25T09:10:44;23.20;44.40
8945;DHT22;4507;40.232;29.132;2023-04-25T09:13:34;23.30;44.20
8945;DHT22;4507;40.232;29.132;2023-04-25T09:16:21;23.30;44.20
8945;DHT22;4507;40.232;29.132;2023-04-25T09:19:21;23.30;44.30
8945;DHT22;4507;40.232;29.132;2023-04-25T09:22:15;23.20;44.10
8945;DHT22;4507;40.232;29.132;2023-04-25T09:25:12;23.20;44.30
8945;DHT22;4507;40.232;29.132;2023-04-25T09:27:53;23.10;44.50
8945;DHT22;4507;40.232;29.132;2023-04-25T09:30:34;23.00;44.70
8945;DHT22;4507;40.232;29.132;2023-04-25T09:33:19;22.90;44.80
8945;DHT22;4507;40.232;29.132;2023-04-25T09:35:50;22.60;45.20
8945;DHT22;4507;40.232;29.132;2023-04-25T09:38:44;22.50;45.60
8945;DHT22;4507;40.232;29.132;2023-04-25T09:41:32;22.30;46.20
8945;DHT22;4507;40.232;29.132;2023-04-25T09:44:06;22.10;46.70
8945;DHT22;4507;40.232;29.132;2023-04-25T09:46:38;22.00;47.10
8945;DHT22;4507;40.232;29.132;2023-04-25T09:49:20;21.80;47.60
8945;DHT22;4507;40.232;29.132;2023-04-25T09:52:05;21.60;49.20
8945;DHT22;4507;40.232;29.132;2023-04-25T09:54:43;21.40;49.60
8945;DHT22;4507;40.232;29.132;2023-04-25T09:57:17;21.30;51.20
8945;DHT22;4507;40.232;29.132;2023-04-25T09:59:49;21.30;52.50
8945;DHT22;4507;40.232;29.132;2023-04-25T10:02:22;21.20;53.20
8945;DHT22;4507;40.232;29.132;2023-04-25T10:04:57;21.20;54.00
8945;DHT22;4507;40.232;29.132;2023-04-25T10:07:34;21.20;54.60
8945;DHT22;4507;40.232;29.132;2023-04-25T10:10:13;21.20;54.80
8945;DHT22;4507;40.232;29.132;2023-04-25T10:12:42;21.30;55.00
8945;DHT22;4507;40.232;29.132;2023-04-25T10:15:14;21.30;55.00
8945;DHT22;4507;40.232;29.132;2023-04-25T10:17:45;21.30;54.60
8945;DHT22;4507;40.232;29.132;2023-04-25T10:20:15;21.30;54.10
8945;DHT22;4507;40.232;29.132;2023-04-25T10:22:46;21.30;53.90
8945;DHT22;4507;40.232;29.132;2023-04-25T10:25:16;21.30;53.90
8945;DHT22;4507;40.232;29.132;2023-04-25T10:27:45;21.30;53.80
8945;DHT22;4507;40.232;29.132;2023-04-25T10:30:15;21.40;53.80
8945;DHT22;4507;40.232;29.132;2023-04-25T10:32:47;21.40;54.00
8945;DHT22;4507;40.232;29.132;2023-04-25T10:35:19;21.50;54.20
8945;DHT22;4507;40.232;29.132;2023-04-25T10:37:57;21.70;54.70
8945;DHT22;4507;40.232;29.132;2023-04-25T10:40:27;21.80;54.20
8945;DHT22;4507;40.232;29.132;2023-04-25T10:42:56;22.00;53.50
8945;DHT22;4507;40.232;29.132;2023-04-25T10:45:52;22.20;52.80
8945;DHT22;4507;40.232;29.132;2023-04-25T10:48:30;22.20;51.20
8945;DHT22;4507;40.232;29.132;2023-04-25T10:51:07;22.20;50.40
8945;DHT22;4507;40.232;29.132;2023-04-25T10:53:37;22.20;50.00
8945;DHT22;4507;40.232;29.132;2023-04-25T10:56:10;22.10;51.40
8945;DHT22;4507;40.232;29.132;2023-04-25T10:58:44;21.90;53.20
8945;DHT22;4507;40.232;29.132;2023-04-25T11:01:20;21.70;54.40
8945;DHT22;4507;40.232;29.132;2023-04-25T11:03:57;21.40;54.90
8945;DHT22;4507;40.232;29.132;2023-04-25T11:06:35;21.10;56.20
8945;DHT22;4507;40.232;29.132;2023-04-25T11:09:10;21.00;57.70
8945;DHT22;4507;40.232;29.132;2023-04-25T11:11:41;20.90;59.10
8945;DHT22;4507;40.232;29.132;2023-04-25T11:14:10;20.90;59.90
8945;DHT22;4507;40.232;29.132;2023-04-25T11:16:39;20.90;59.70
8945;DHT22;4507;40.232;29.132;2023-04-25T11:19:10;20.90;60.10
8945;DHT22;4507;40.232;29.132;2023-04-25T11:21:39;21.00;61.80
8945;DHT22;4507;40.232;29.132;2023-04-25T11:24:08;21.10;62.80
8945;DHT22;4507;40.232;29.132;2023-04-25T11:26:37;21.30;63.10
8945;DHT22;4507;40.232;29.132;2023-04-25T11:29:06;21.60;63.40
8945;DHT22;4507;40.232;29.132;2023-04-25T11:31:35;21.90;63.00
8945;DHT22;4507;40.232;29.132;2023-04-25T11:34:04;22.20;63.10
8945;DHT22;4507;40.232;29.132;2023-04-25T11:36:38;22.60;59.70
8945;DHT22;4507;40.232;29.132;2023-04-25T11:39:07;22.80;58.30
8945;DHT22;4507;40.232;29.132;2023-04-25T11:41:37;22.90;57.30
8945;DHT22;4507;40.232;29.132;2023-04-25T11:44:08;23.10;56.70
8945;DHT22;4507;40.232;29.132;2023-04-25T11:46:37;23.20;56.00
8945;DHT22;4507;40.232;29.132;2023-04-25T11:49:06;23.30;55.20
8945;DHT22;4507;40.232;29.132;2023-04-25T11:51:40;23.40;56.50
8945;DHT22;4507;40.232;29.132;2023-04-25T11:54:09;23.50;54.80
8945;DHT22;4507;40.232;29.132;2023-04-25T11:56:41;23.50;54.30
8945;DHT22;4507;40.232;29.132;2023-04-25T11:59:11;23.50;54.10
8945;DHT22;4507;40.232;29.132;2023-04-25T12:04:18;23.60;54.60
8945;DHT22;4507;40.232;29.132;2023-04-25T12:06:51;23.80;52.80
8945;DHT22;4507;40.232;29.132;2023-04-25T12:09:28;24.00;52.20
8945;DHT22;4507;40.232;29.132;2023-04-25T12:11:58;24.10;51.70
8945;DHT22;4507;40.232;29.132;2023-04-25T12:14:32;24.10;50.50
8945;DHT22;4507;40.232;29.132;2023-04-25T12:17:02;24.00;50.40
8945;DHT22;4507;40.232;29.132;2023-04-25T12:19:37;23.90;49.80
8945;DHT22;4507;40.232;29.132;2023-04-25T12:22:21;23.80;50.00
8945;DHT22;4507;40.232;29.132;2023-04-25T12:24:51;23.90;50.10
8945;DHT22;4507;40.232;29.132;2023-04-25T12:27:21;23.90;49.90
8945;DHT22;4507;40.232;29.132;2023-04-25T12:29:52;24.00;50.50
8945;DHT22;4507;40.232;29.132;2023-04-25T12:32:21;24.10;50.40
8945;DHT22;4507;40.232;29.132;2023-04-25T12:34:50;24.20;50.10
8945;DHT22;4507;40.232;29.132;2023-04-25T12:37:21;24.40;49.50
8945;DHT22;4507;40.232;29.132;2023-04-25T12:39:50;24.50;48.50
8945;DHT22;4507;40.232;29.132;2023-04-25T12:42:20;24.60;48.50
8945;DHT22;4507;40.232;29.132;2023-04-25T12:44:48;24.70;48.70
8945;DHT22;4507;40.232;29.132;2023-04-25T12:47:18;24.90;48.30
8945;DHT22;4507;40.232;29.132;2023-04-25T12:49:47;24.90;47.00
8945;DHT22;4507;40.232;29.132;2023-04-25T12:52:16;24.90;46.40
8945;DHT22;4507;40.232;29.132;2023-04-25T12:54:47;24.80;46.60
8945;DHT22;4507;40.232;29.132;2023-04-25T12:57:16;24.70;46.00
8945;DHT22;4507;40.232;29.132;2023-04-25T12:59:44;24.70;45.60
8945;DHT22;4507;40.232;29.132;2023-04-25T13:02:14;24.50;45.90
8945;DHT22;4507;40.232;29.132;2023-04-25T13:04:43;24.30;47.30
8945;DHT22;4507;40.232;29.132;2023-04-25T13:07:13;24.10;48.30
8945;DHT22;4507;40.232;29.132;2023-04-25T13:09:43;24.00;50.00
8945;DHT22;4507;40.232;29.132;2023-04-25T13:12:15;23.90;51.60
8945;DHT22;4507;40.232;29.132;2023-04-25T13:14:44;23.90;52.40
8945;DHT22;4507;40.232;29.132;2023-04-25T13:17:13;24.00;53.10
8945;DHT22;4507;40.232;29.132;2023-04-25T13:19:42;24.20;52.80
8945;DHT22;4507;40.232;29.132;2023-04-25T13:22:11;24.50;51.80
8945;DHT22;4507;40.232;29.132;2023-04-25T13:24:43;24.80;51.40
8945;DHT22;4507;40.232;29.132;2023-04-25T13:27:32;25.00;50.10
8945;DHT22;4507;40.232;29.132;2023-04-25T13:30:02;25.20;48.50
8945;DHT22;4507;40.232;29.132;2023-04-25T13:32:35;25.20;48.20
8945;DHT22;4507;40.232;29.132;2023-04-25T13:35:06;25.20;48.30
8945;DHT22;4507;40.232;29.132;2023-04-25T13:37:56;25.20;47.90
8945;DHT22;4507;40.232;29.132;2023-04-25T13:40:25;25.00;47.60
8945;DHT22;4507;40.232;29.132;2023-04-25T13:42:56;24.90;48.30
8945;DHT22;4507;40.232;29.132;2023-04-25T13:45:25;24.80;48.10
8945;DHT22;4507;40.232;29.132;2023-04-25T13:47:58;24.70;48.50
8945;DHT22;4507;40.232;29.132;2023-04-25T13:50:28;24.60;48.50
8945;DHT22;4507;40.232;29.132;2023-04-25T13:53:01;24.50;48.50
8945;DHT22;4507;40.232;29.132;2023-04-25T13:55:30;24.30;48.60
8945;DHT22;4507;40.232;29.132;2023-04-25T13:58:00;24.20;49.30
8945;DHT22;4507;40.232;29.132;2023-04-25T14:00:36;24.10;49.90
8945;DHT22;4507;40.232;29.132;2023-04-25T14:03:07;24.00;50.80
8945;DHT22;4507;40.232;29.132;2023-04-25T14:05:37;23.80;52.00
8945;DHT22;4507;40.232;29.132;2023-04-25T14:08:07;23.70;51.90
8945;DHT22;4507;40.232;29.132;2023-04-25T14:10:37;23.60;52.40
8945;DHT22;4507;40.232;29.132;2023-04-25T14:13:07;23.40;53.00
8945;DHT22;4507;40.232;29.132;2023-04-25T14:15:37;23.30;54.30
8945;DHT22;4507;40.232;29.132;2023-04-25T14:18:06;23.20;55.60
8945;DHT22;4507;40.232;29.132;2023-04-25T14:20:36;23.10;58.70
8945;DHT22;4507;40.232;29.132;2023-04-25T14:23:05;23.00;59.90
8945;DHT22;4507;40.232;29.132;2023-04-25T14:25:34;22.80;59.60
8945;DHT22;4507;40.232;29.132;2023-04-25T14:28:04;22.70;60.10
8945;DHT22;4507;40.232;29.132;2023-04-25T14:30:35;22.60;61.10
8945;DHT22;4507;40.232;29.132;2023-04-25T14:33:04;22.50;62.00
8945;DHT22;4507;40.232;29.132;2023-04-25T14:35:35;22.40;62.20
8945;DHT22;4507;40.232;29.132;2023-04-25T14:38:05;22.30;61.50
8945;DHT22;4507;40.232;29.132;2023-04-25T14:40:35;22.20;62.00
8945;DHT22;4507;40.232;29.132;2023-04-25T14:43:05;22.10;63.50
8945;DHT22;4507;40.232;29.132;2023-04-25T14:45:35;22.00;65.30
8945;DHT22;4507;40.232;29.132;2023-04-25T14:48:05;21.90;66.70
8945;DHT22;4507;40.232;29.132;2023-04-25T14:50:34;21.80;67.40
8945;DHT22;4507;40.232;29.132;2023-04-25T14:53:03;21.70;68.30
8945;DHT22;4507;40.232;29.132;2023-04-25T14:55:33;21.60;69.40
8945;DHT22;4507;40.232;29.132;2023-04-25T14:58:02;21.50;69.40
8945;DHT22;4507;40.232;29.132;2023-04-25T15:00:31;21.40;69.40
8945;DHT22;4507;40.232;29.132;2023-04-25T15:03:02;21.20;69.90
8945;DHT22;4507;40.232;29.132;2023-04-25T15:05:32;21.10;70.40
8945;DHT22;4507;40.232;29.132;2023-04-25T15:08:02;20.90;70.80
8945;DHT22;4507;40.232;29.132;2023-04-25T15:10:31;20.70;70.30
8945;DHT22;4507;40.232;29.132;2023-04-25T15:13:00;20.50;70.30
8945;DHT22;4507;40.232;29.132;2023-04-25T15:15:30;20.30;71.90
8945;DHT22;4507;40.232;29.132;2023-04-25T15:18:00;20.00;73.20
8945;DHT22;4507;40.232;29.132;2023-04-25T15:20:29;19.80;73.80
8945;DHT22;4507;40.232;29.132;2023-04-25T15:22:59;19.60;75.20
8945;DHT22;4507;40.232;29.132;2023-04-25T15:25:30;19.30;76.90
8945;DHT22;4507;40.232;29.132;2023-04-25T15:28:00;19.20;78.60
8945;DHT22;4507;40.232;29.132;2023-04-25T15:30:32;19.00;80.40
8945;DHT22;4507;40.232;29.132;2023-04-25T15:33:03;18.90;82.70
8945;DHT22;4507;40.232;29.132;2023-04-25T15:35:33;18.80;85.70
8945;DHT22;4507;40.232;29.132;2023-04-25T15:38:03;18.70;86.80
8945;DHT22;4507;40.232;29.132;2023-04-25T15:40:32;18.70;88.50
8945;DHT22;4507;40.232;29.132;2023-04-25T15:43:02;18.60;89.50
8945;DHT22;4507;40.232;29.132;2023-04-25T15:45:32;18.50;90.30
8945;DHT22;4507;40.232;29.132;2023-04-25T15:48:24;18.50;90.50
8945;DHT22;4507;40.232;29.132;2023-04-25T15:50:53;18.40;90.70
8945;DHT22;4507;40.232;29.132;2023-04-25T15:53:25;18.30;91.10
8945;DHT22;4507;40.232;29.132;2023-04-25T15:55:54;18.30;91.70
8945;DHT22;4507;40.232;29.132;2023-04-25T15:58:24;18.30;92.40
8945;DHT22;4507;40.232;29.132;2023-04-25T16:00:53;18.20;92.90
8945;DHT22;4507;40.232;29.132;2023-04-25T16:03:25;18.10;93.30
8945;DHT22;4507;40.232;29.132;2023-04-25T16:05:55;18.10;93.80
8945;DHT22;4507;40.232;29.132;2023-04-25T16:08:24;18.00;94.10
8945;DHT22;4507;40.232;29.132;2023-04-25T16:10:56;18.00;94.60
8945;DHT22;4507;40.232;29.132;2023-04-25T16:13:25;17.90;94.80
8945;DHT22;4507;40.232;29.132;2023-04-25T16:15:56;17.90;95.20
8945;DHT22;4507;40.232;29.132;2023-04-25T16:18:27;17.80;95.50
8945;DHT22;4507;40.232;29.132;2023-04-25T16:20:56;17.80;95.80
8945;DHT22;4507;40.232;29.132;2023-04-25T16:23:25;17.60;96.10
8945;DHT22;4507;40.232;29.132;2023-04-25T16:25:54;17.70;96.70
8945;DHT22;4507;40.232;29.132;2023-04-25T16:28:24;17.70;97.00